Time;durP1;ratioP1;P1;durP2;ratioP2;P2;SDS_P1;SDS_P2;PMS_P1;PMS_P2;Temp;Humidity;BMP_temperature;BMP_pressure;BME280_temperature;BME280_humidity;BME280_pressure;Samples;Min_cycle;Max_cycle;Signal;HPM_P1;HPM_P2
2023/09/07 00:01:54;;;;;;;14.48;3.00;;;;;;;;;;5042501;28;20071;-84
2023/09/07 00:04:21;;;;;;;3.58;2.47;;;;;;;;;;5040214;28;20406;-84
2023/09/07 00:06:46;;;;;;;5.55;2.38;;;;;;;;;;5036164;28;20130;-83
2023/09/07 00:09:13;;;;;;;4.85;2.35;;;;;;;;;;5040522;28;20490;-83
2023/09/07 00:11:38;;;;;;;3.13;2.30;;;;;;;;;;5045581;28;20104;-83
2023/09/07 00:14:04;;;;;;;2.75;2.03;;;;;;;;;;5041754;28;20069;-83
2023/09/07 00:16:35;;;;;;;2.78;2.17;;;;;;;;;;5037504;28;20037;-84
2023/09/07 00:19:01;;;;;;;2.72;2.20;;;;;;;;;;5044576;28;20033;-84
2023/09/07 00:21:26;;;;;;;4.65;2.70;;;;;;;;;;5046244;28;20037;-84
2023/09/07 00:23:52;;;;;;;2.80;2.40;;;;;;;;;;5041109;28;20102;-83
2023/09/07 00:26:18;;;;;;;4.90;2.70;;;;;;;;;;5051828;28;20044;-83
2023/09/07 00:28:44;;;;;;;3.65;2.50;;;;;;;;;;5051816;28;20522;-83
2023/09/07 00:31:10;;;;;;;3.60;2.20;;;;;;;;;;5050195;28;20043;-83
2023/09/07 00:33:35;;;;;;;3.83;2.40;;;;;;;;;;5051283;28;20083;-82
2023/09/07 00:36:03;;;;;;;4.70;2.28;;;;;;;;;;5043874;28;20041;-83
2023/09/07 00:38:28;;;;;;;4.45;2.85;;;;;;;;;;5039824;28;20045;-83
2023/09/07 00:40:54;;;;;;;3.70;2.70;;;;;;;;;;5034898;28;20041;-83
2023/09/07 00:43:19;;;;;;;5.40;3.03;;;;;;;;;;5036715;28;20041;-83
2023/09/07 00:45:45;;;;;;;4.95;2.78;;;;;;;;;;5045390;28;20399;-83
2023/09/07 00:48:16;;;;;;;3.88;2.60;;;;;;;;;;5047469;28;20030;-83
2023/09/07 00:50:42;;;;;;;5.35;3.08;;;;;;;;;;5036366;28;20045;-83
2023/09/07 00:53:08;;;;;;;4.93;3.30;;;;;;;;;;5050261;28;20482;-82
2023/09/07 00:55:34;;;;;;;4.43;3.00;;;;;;;;;;5045580;28;20076;-84
2023/09/07 00:58:03;;;;;;;4.15;2.95;;;;;;;;;;5042336;28;20029;-83
2023/09/07 01:00:29;;;;;;;4.60;2.83;;;;;;;;;;5045396;28;20041;-84
2023/09/07 01:02:55;;;;;;;5.93;2.80;;;;;;;;;;5037430;28;20044;-84
2023/09/07 01:05:29;;;;;;;6.32;2.88;;;;;;;;;;5051837;28;20351;-84
2023/09/07 01:08:02;;;;;;;4.95;2.60;;;;;;;;;;5050775;28;20410;-83
2023/09/07 01:10:28;;;;;;;3.75;2.95;;;;;;;;;;5040164;28;20506;-83
2023/09/07 01:12:54;;;;;;;5.40;2.88;;;;;;;;;;5037877;28;20036;-83
2023/09/07 01:15:19;;;;;;;3.78;3.10;;;;;;;;;;5034630;28;20122;-83
2023/09/07 01:17:45;;;;;;;6.07;2.72;;;;;;;;;;5061235;28;20123;-83
2023/09/07 01:20:13;;;;;;;7.65;3.13;;;;;;;;;;5044617;28;20041;-82
2023/09/07 01:22:39;;;;;;;4.78;2.53;;;;;;;;;;5051162;28;20059;-83
2023/09/07 01:25:06;;;;;;;3.60;2.50;;;;;;;;;;5046905;28;20104;-83
2023/09/07 01:27:33;;;;;;;3.85;2.58;;;;;;;;;;5036676;28;20034;-83
2023/09/07 01:29:58;;;;;;;3.97;3.10;;;;;;;;;;5038980;28;20039;-83
2023/09/07 01:32:26;;;;;;;3.65;2.70;;;;;;;;;;5043612;28;20037;-83
2023/09/07 01:34:56;;;;;;;7.15;2.67;;;;;;;;;;5040812;28;20033;-83
2023/09/07 01:37:21;;;;;;;4.07;2.80;;;;;;;;;;5050312;28;20033;-83
2023/09/07 01:39:48;;;;;;;3.22;2.33;;;;;;;;;;5040923;28;20040;-83
2023/09/07 01:42:14;;;;;;;4.25;2.33;;;;;;;;;;5046733;28;20074;-83
2023/09/07 01:44:40;;;;;;;2.95;2.20;;;;;;;;;;5041512;28;20108;-83
2023/09/07 01:47:05;;;;;;;3.03;2.40;;;;;;;;;;5051651;28;20478;-83
2023/09/07 01:49:31;;;;;;;4.60;2.55;;;;;;;;;;5048209;28;20045;-82
2023/09/07 01:51:56;;;;;;;3.58;2.55;;;;;;;;;;5048331;28;20033;-84
2023/09/07 01:54:22;;;;;;;5.57;2.70;;;;;;;;;;5049095;28;20033;-84
2023/09/07 01:56:47;;;;;;;4.57;2.83;;;;;;;;;;5037672;28;20121;-84
2023/09/07 01:59:13;;;;;;;3.05;2.42;;;;;;;;;;5043812;28;20061;-84
2023/09/07 02:01:40;;;;;;;3.45;2.90;;;;;;;;;;5038126;28;20034;-84
2023/09/07 02:04:05;;;;;;;6.35;2.92;;;;;;;;;;5054112;28;20473;-84
2023/09/07 02:06:31;;;;;;;3.25;2.80;;;;;;;;;;5043368;28;20072;-83
2023/09/07 02:08:57;;;;;;;3.35;2.83;;;;;;;;;;5040822;28;20099;-83
2023/09/07 02:11:23;;;;;;;4.15;2.88;;;;;;;;;;5041870;28;20025;-83
2023/09/07 02:13:49;;;;;;;4.10;2.55;;;;;;;;;;5047730;28;20144;-83
2023/09/07 02:16:14;;;;;;;5.35;2.65;;;;;;;;;;5046453;28;20108;-84
2023/09/07 02:18:45;;;;;;;3.88;2.80;;;;;;;;;;5039857;28;20035;-84
2023/09/07 02:21:11;;;;;;;5.13;2.88;;;;;;;;;;5040358;28;20033;-84
2023/09/07 02:23:37;;;;;;;4.25;2.72;;;;;;;;;;5040972;28;20109;-83
2023/09/07 02:26:02;;;;;;;4.88;2.80;;;;;;;;;;5051672;28;20098;-83
2023/09/07 02:28:28;;;;;;;4.38;3.00;;;;;;;;;;5045466;28;20071;-83
2023/09/07 02:30:54;;;;;;;5.57;2.95;;;;;;;;;;5039742;28;20041;-83
2023/09/07 02:33:20;;;;;;;5.65;2.60;;;;;;;;;;5053631;28;20030;-83
2023/09/07 02:35:48;;;;;;;3.90;2.60;;;;;;;;;;5039415;28;20034;-83
2023/09/07 02:38:14;;;;;;;3.17;2.60;;;;;;;;;;5050875;28;20120;-83
2023/09/07 02:40:43;;;;;;;4.45;2.63;;;;;;;;;;5035464;28;20097;-83
2023/09/07 02:43:12;;;;;;;3.72;2.60;;;;;;;;;;5046174;28;20841;-83
2023/09/07 02:45:38;;;;;;;3.28;2.65;;;;;;;;;;5041793;28;20482;-83
2023/09/07 02:48:05;;;;;;;4.80;2.70;;;;;;;;;;5040504;28;20043;-84
2023/09/07 02:50:32;;;;;;;3.35;2.55;;;;;;;;;;5050338;28;20037;-84
2023/09/07 02:52:58;;;;;;;4.68;2.65;;;;;;;;;;5035559;28;20029;-82
2023/09/07 02:55:23;;;;;;;3.85;2.65;;;;;;;;;;5054203;28;20036;-82
2023/09/07 02:57:49;;;;;;;3.00;2.60;;;;;;;;;;5043260;28;20043;-83
2023/09/07 03:00:17;;;;;;;2.78;2.22;;;;;;;;;;5040109;28;20033;-82
2023/09/07 03:02:44;;;;;;;2.88;2.28;;;;;;;;;;5059737;28;20054;-82
2023/09/07 03:05:09;;;;;;;3.25;2.30;;;;;;;;;;5052922;28;20062;-82
2023/09/07 03:07:35;;;;;;;4.20;2.45;;;;;;;;;;5040967;28;20120;-82
2023/09/07 03:10:01;;;;;;;4.65;2.55;;;;;;;;;;5044121;28;20409;-82
2023/09/07 03:12:28;;;;;;;5.05;2.58;;;;;;;;;;5046015;28;20127;-82
2023/09/07 03:14:54;;;;;;;2.88;2.40;;;;;;;;;;5051547;28;20487;-83
2023/09/07 03:17:22;;;;;;;3.22;2.60;;;;;;;;;;5046227;28;20032;-83
2023/09/07 03:19:49;;;;;;;2.92;2.47;;;;;;;;;;5023488;28;20453;-83
2023/09/07 03:22:15;;;;;;;3.63;2.40;;;;;;;;;;5052383;28;20036;-80
2023/09/07 03:24:40;;;;;;;2.88;2.30;;;;;;;;;;5052354;28;20564;-83
2023/09/07 03:27:06;;;;;;;3.88;2.40;;;;;;;;;;5051111;28;20041;-83
2023/09/07 03:29:35;;;;;;;4.57;2.50;;;;;;;;;;5053480;28;20032;-83
2023/09/07 03:32:02;;;;;;;2.95;2.50;;;;;;;;;;5036733;28;20064;-83
2023/09/07 03:34:28;;;;;;;4.53;2.40;;;;;;;;;;5054684;28;20493;-83
2023/09/07 03:36:54;;;;;;;3.17;2.40;;;;;;;;;;5042400;28;20034;-83
2023/09/07 03:39:22;;;;;;;4.53;2.42;;;;;;;;;;5044052;28;20517;-84
2023/09/07 03:41:48;;;;;;;3.50;2.20;;;;;;;;;;5042394;28;20029;-83
2023/09/07 03:44:14;;;;;;;3.50;2.25;;;;;;;;;;5047236;28;20548;-83
2023/09/07 03:46:39;;;;;;;3.00;2.42;;;;;;;;;;5034730;28;20029;-83
2023/09/07 03:49:05;;;;;;;3.53;2.50;;;;;;;;;;5047915;28;20405;-82
2023/09/07 03:51:32;;;;;;;3.20;2.33;;;;;;;;;;5040709;28;20494;-82
2023/09/07 03:53:57;;;;;;;5.60;2.50;;;;;;;;;;5031436;28;20030;-82
2023/09/07 03:56:23;;;;;;;3.75;2.30;;;;;;;;;;5051891;28;20567;-83
2023/09/07 03:58:49;;;;;;;3.83;2.40;;;;;;;;;;5035310;28;20028;-82
2023/09/07 04:01:14;;;;;;;4.43;2.20;;;;;;;;;;5035900;28;20033;-82
2023/09/07 04:03:41;;;;;;;4.05;2.25;;;;;;;;;;5062816;28;20033;-82
2023/09/07 04:06:07;;;;;;;4.05;2.20;;;;;;;;;;5035720;28;20074;-82
2023/09/07 04:08:33;;;;;;;3.10;2.15;;;;;;;;;;5039055;28;20041;-82
2023/09/07 04:11:04;;;;;;;3.75;2.50;;;;;;;;;;5043185;28;20037;-82
2023/09/07 04:13:29;;;;;;;4.05;2.50;;;;;;;;;;5041945;28;20043;-82
2023/09/07 04:15:54;;;;;;;6.80;2.58;;;;;;;;;;5037365;28;20034;-82
2023/09/07 04:18:20;;;;;;;3.28;2.40;;;;;;;;;;5036211;28;20535;-82
2023/09/07 04:20:45;;;;;;;5.65;2.60;;;;;;;;;;5050845;28;20068;-82
2023/09/07 04:23:12;;;;;;;2.97;2.50;;;;;;;;;;5048194;28;20032;-83
2023/09/07 04:25:39;;;;;;;3.58;2.42;;;;;;;;;;5040686;28;20040;-82
2023/09/07 04:28:05;;;;;;;3.47;2.50;;;;;;;;;;5053048;28;20043;-82
2023/09/07 04:30:32;;;;;;;4.90;2.28;;;;;;;;;;5030700;28;20086;-82
2023/09/07 04:32:58;;;;;;;4.60;2.90;;;;;;;;;;5050887;28;20446;-82
2023/09/07 04:35:30;;;;;;;5.15;2.80;;;;;;;;;;5052195;28;20029;-82
2023/09/07 04:37:56;;;;;;;3.25;2.55;;;;;;;;;;5045785;28;20430;-82
2023/09/07 04:40:23;;;;;;;5.03;2.60;;;;;;;;;;5039765;28;20045;-82
2023/09/07 04:42:49;;;;;;;5.47;2.35;;;;;;;;;;5037093;28;20424;-82
2023/09/07 04:45:14;;;;;;;3.08;2.47;;;;;;;;;;5050790;28;20106;-82
2023/09/07 04:47:40;;;;;;;4.10;2.88;;;;;;;;;;5039863;28;20081;-82
2023/09/07 04:50:06;;;;;;;3.25;2.58;;;;;;;;;;5047781;28;20125;-82
2023/09/07 04:52:32;;;;;;;4.63;2.72;;;;;;;;;;5034792;28;20048;-83
2023/09/07 04:54:59;;;;;;;5.78;2.50;;;;;;;;;;5041723;28;20045;-82
2023/09/07 04:57:25;;;;;;;5.70;2.50;;;;;;;;;;5048891;28;20083;-82
2023/09/07 04:59:50;;;;;;;3.00;2.28;;;;;;;;;;5039101;28;20569;-82
2023/09/07 05:02:17;;;;;;;3.10;2.60;;;;;;;;;;5037693;28;20502;-82
2023/09/07 05:04:42;;;;;;;4.18;2.50;;;;;;;;;;5036441;28;20029;-83
2023/09/07 05:07:09;;;;;;;3.88;2.70;;;;;;;;;;5054956;28;20102;-83
2023/09/07 05:09:35;;;;;;;5.35;2.60;;;;;;;;;;5058728;28;20048;-84
2023/09/07 05:12:00;;;;;;;9.68;3.00;;;;;;;;;;5045156;28;20057;-84
2023/09/07 05:14:25;;;;;;;3.92;2.75;;;;;;;;;;5040055;28;20053;-84
2023/09/07 05:16:52;;;;;;;4.00;2.85;;;;;;;;;;5044224;28;20037;-83
2023/09/07 05:19:18;;;;;;;3.78;2.63;;;;;;;;;;5049596;28;20053;-83
2023/09/07 05:21:44;;;;;;;4.03;2.83;;;;;;;;;;5037605;28;20033;-83
2023/09/07 05:24:13;;;;;;;4.85;3.00;;;;;;;;;;5046256;28;20027;-83
2023/09/07 05:26:39;;;;;;;8.27;2.97;;;;;;;;;;5026945;28;20163;-83
2023/09/07 05:29:05;;;;;;;3.95;2.90;;;;;;;;;;5062443;28;20406;-83
2023/09/07 05:31:31;;;;;;;5.25;2.95;;;;;;;;;;5048281;28;20029;-84
2023/09/07 05:33:56;;;;;;;5.63;3.25;;;;;;;;;;5037157;28;20130;-83
2023/09/07 05:36:22;;;;;;;4.88;3.03;;;;;;;;;;5019506;28;20154;-83
2023/09/07 05:38:47;;;;;;;5.65;3.20;;;;;;;;;;5059982;28;20033;-83
2023/09/07 05:41:13;;;;;;;7.13;3.33;;;;;;;;;;5037717;28;20120;-83
2023/09/07 05:43:39;;;;;;;5.28;3.30;;;;;;;;;;5047107;28;20030;-83
2023/09/07 05:46:04;;;;;;;4.00;3.20;;;;;;;;;;5049676;28;20056;-83
2023/09/07 05:48:30;;;;;;;6.63;3.30;;;;;;;;;;5040947;28;20037;-82
2023/09/07 05:50:56;;;;;;;4.90;3.25;;;;;;;;;;5036499;28;20038;-83
2023/09/07 05:53:22;;;;;;;3.65;3.22;;;;;;;;;;5044261;28;20030;-82
2023/09/07 05:55:47;;;;;;;4.97;3.40;;;;;;;;;;5040074;28;20116;-83
2023/09/07 05:58:14;;;;;;;6.63;3.70;;;;;;;;;;5045716;28;20036;-82
2023/09/07 06:00:43;;;;;;;4.95;3.10;;;;;;;;;;5024130;28;20041;-82
2023/09/07 06:03:09;;;;;;;5.70;3.55;;;;;;;;;;5053791;28;20624;-82
2023/09/07 06:05:36;;;;;;;4.75;3.30;;;;;;;;;;5044389;28;20040;-83
2023/09/07 06:08:02;;;;;;;4.85;3.42;;;;;;;;;;5040201;28;20037;-83
2023/09/07 06:10:29;;;;;;;9.82;3.55;;;;;;;;;;5048706;28;20068;-82
2023/09/07 06:12:56;;;;;;;6.68;3.92;;;;;;;;;;5047364;28;20494;-82
2023/09/07 06:15:21;;;;;;;6.20;3.67;;;;;;;;;;5053005;28;20168;-81
2023/09/07 06:17:47;;;;;;;4.78;3.90;;;;;;;;;;5045546;28;20484;-83
2023/09/07 06:20:13;;;;;;;5.68;3.80;;;;;;;;;;5053290;28;20038;-82
2023/09/07 06:22:39;;;;;;;7.75;3.80;;;;;;;;;;5044251;28;20091;-83
2023/09/07 06:25:05;;;;;;;4.72;3.78;;;;;;;;;;5039124;28;20059;-83
2023/09/07 06:27:30;;;;;;;5.07;4.20;;;;;;;;;;5052437;28;20040;-82
2023/09/07 06:29:56;;;;;;;8.15;4.07;;;;;;;;;;5052948;28;20033;-82
2023/09/07 06:32:22;;;;;;;4.88;4.20;;;;;;;;;;5037699;28;20033;-82
2023/09/07 06:34:47;;;;;;;6.93;4.30;;;;;;;;;;5051127;28;20037;-82
2023/09/07 06:37:13;;;;;;;7.97;4.40;;;;;;;;;;5052009;28;20033;-82
2023/09/07 06:39:42;;;;;;;6.47;4.40;;;;;;;;;;5043740;28;20533;-84
2023/09/07 06:42:09;;;;;;;4.95;4.00;;;;;;;;;;5021423;28;20041;-84
2023/09/07 06:44:42;;;;;;;5.10;3.88;;;;;;;;;;5039771;28;20116;-83
2023/09/07 06:47:10;;;;;;;7.00;4.07;;;;;;;;;;5053005;28;20564;-83
2023/09/07 06:49:37;;;;;;;5.93;4.13;;;;;;;;;;5057161;28;20045;-83
2023/09/07 06:52:03;;;;;;;6.28;4.45;;;;;;;;;;5047034;28;20079;-82
2023/09/07 06:54:30;;;;;;;6.57;4.30;;;;;;;;;;5046037;28;20033;-82
2023/09/07 06:56:55;;;;;;;6.40;4.45;;;;;;;;;;5032437;28;20033;-83
2023/09/07 06:59:21;;;;;;;6.72;4.65;;;;;;;;;;5049897;28;20032;-83
2023/09/07 07:01:46;;;;;;;5.65;4.72;;;;;;;;;;5046979;28;20039;-83
2023/09/07 07:04:12;;;;;;;7.03;4.68;;;;;;;;;;5050062;28;20116;-83
2023/09/07 07:06:38;;;;;;;6.30;4.68;;;;;;;;;;5020289;28;20065;-83
2023/09/07 07:09:05;;;;;;;9.75;4.97;;;;;;;;;;5052138;28;20410;-82
2023/09/07 07:11:31;;;;;;;6.03;4.57;;;;;;;;;;5051205;28;20644;-83
2023/09/07 07:13:57;;;;;;;6.20;4.53;;;;;;;;;;5049943;28;20041;-82
2023/09/07 07:16:22;;;;;;;7.20;4.95;;;;;;;;;;5046209;28;20120;-83
2023/09/07 07:18:49;;;;;;;6.07;4.97;;;;;;;;;;5046400;28;20030;-82
2023/09/07 07:21:15;;;;;;;7.10;6.00;;;;;;;;;;5050311;28;20518;-83
2023/09/07 07:23:42;;;;;;;7.30;5.28;;;;;;;;;;5057993;28;20061;-83
2023/09/07 07:26:08;;;;;;;7.10;5.22;;;;;;;;;;5051040;28;20040;-83
2023/09/07 07:28:34;;;;;;;8.52;5.85;;;;;;;;;;5044944;28;20515;-83
2023/09/07 07:31:08;;;;;;;7.07;5.78;;;;;;;;;;5046992;28;20052;-83
2023/09/07 07:33:33;;;;;;;10.30;5.90;;;;;;;;;;5049676;28;20033;-83
2023/09/07 07:35:59;;;;;;;7.93;5.35;;;;;;;;;;5051492;28;20043;-83
2023/09/07 07:38:25;;;;;;;8.20;5.43;;;;;;;;;;5039996;28;20383;-83
2023/09/07 07:40:52;;;;;;;7.32;5.68;;;;;;;;;;5039250;28;20057;-83
2023/09/07 07:43:18;;;;;;;9.70;5.82;;;;;;;;;;5048723;28;20033;-82
2023/09/07 07:45:44;;;;;;;11.88;6.40;;;;;;;;;;5044344;28;20108;-83
2023/09/07 07:48:10;;;;;;;9.70;6.15;;;;;;;;;;5052068;28;20454;-81
2023/09/07 07:50:39;;;;;;;8.60;6.47;;;;;;;;;;5040306;28;20184;-84
2023/09/07 07:53:08;;;;;;;8.45;6.65;;;;;;;;;;5041106;28;20042;-84
2023/09/07 07:55:39;;;;;;;7.97;6.35;;;;;;;;;;5047077;28;20036;-83
2023/09/07 07:58:07;;;;;;;8.32;5.63;;;;;;;;;;5048596;28;20036;-84
2023/09/07 08:00:37;;;;;;;8.18;4.75;;;;;;;;;;5045149;28;20087;-83
2023/09/07 08:03:05;;;;;;;6.70;4.40;;;;;;;;;;5024922;28;20037;-83
2023/09/07 08:05:32;;;;;;;6.55;4.38;;;;;;;;;;5041969;28;20021;-84
2023/09/07 08:07:57;;;;;;;8.38;4.70;;;;;;;;;;5048698;28;20044;-84
2023/09/07 08:10:23;;;;;;;7.93;4.50;;;;;;;;;;5050793;28;20024;-84
2023/09/07 08:12:54;;;;;;;6.40;4.78;;;;;;;;;;5045883;28;20041;-83
2023/09/07 08:15:22;;;;;;;8.50;4.18;;;;;;;;;;5037689;28;20041;-83
2023/09/07 08:17:48;;;;;;;5.82;4.00;;;;;;;;;;5040104;28;20044;-83
2023/09/07 08:20:15;;;;;;;7.70;4.20;;;;;;;;;;5044047;28;20029;-83
2023/09/07 08:22:42;;;;;;;7.47;4.00;;;;;;;;;;5021095;28;20029;-83
2023/09/07 08:25:09;;;;;;;5.05;4.07;;;;;;;;;;5054615;28;20388;-83
2023/09/07 08:27:35;;;;;;;5.20;3.95;;;;;;;;;;5042171;28;20100;-84
2023/09/07 08:30:01;;;;;;;4.75;4.05;;;;;;;;;;5033298;28;20094;-83
2023/09/07 08:32:26;;;;;;;5.30;3.78;;;;;;;;;;5046095;28;20032;-83
2023/09/07 08:34:56;;;;;;;5.75;3.88;;;;;;;;;;5046861;28;20465;-83
2023/09/07 08:37:22;;;;;;;5.40;4.28;;;;;;;;;;5036490;28;20119;-84
2023/09/07 08:39:47;;;;;;;5.95;3.70;;;;;;;;;;5017158;28;20130;-82
2023/09/07 08:42:13;;;;;;;7.72;4.00;;;;;;;;;;5044733;28;20520;-82
2023/09/07 08:44:41;;;;;;;5.05;3.80;;;;;;;;;;5037942;28;20033;-82
2023/09/07 08:47:08;;;;;;;6.57;3.70;;;;;;;;;;5035614;28;20507;-83
2023/09/07 08:49:33;;;;;;;4.88;3.65;;;;;;;;;;5035573;28;20041;-84
2023/09/07 08:52:00;;;;;;;4.35;3.50;;;;;;;;;;5045555;28;20039;-84
2023/09/07 08:54:26;;;;;;;6.35;3.50;;;;;;;;;;5041504;28;20101;-83
2023/09/07 08:56:52;;;;;;;6.55;3.70;;;;;;;;;;5039471;28;20039;-84
2023/09/07 08:59:18;;;;;;;6.75;3.85;;;;;;;;;;5038495;28;20553;-84
2023/09/07 09:01:43;;;;;;;4.82;3.70;;;;;;;;;;5033384;28;20037;-84
2023/09/07 09:04:09;;;;;;;5.18;3.70;;;;;;;;;;5052776;28;20144;-84
2023/09/07 09:06:34;;;;;;;4.57;3.72;;;;;;;;;;5045396;28;20033;-84
2023/09/07 09:09:00;;;;;;;5.65;3.80;;;;;;;;;;5041023;28;20123;-83
2023/09/07 09:11:27;;;;;;;6.85;3.42;;;;;;;;;;5045541;28;20033;-84
2023/09/07 09:13:53;;;;;;;6.53;4.00;;;;;;;;;;5036513;28;20041;-84
2023/09/07 09:16:20;;;;;;;5.55;4.00;;;;;;;;;;5036433;28;20124;-84
2023/09/07 09:18:56;;;;;;;5.38;3.88;;;;;;;;;;5041248;28;20037;-84
2023/09/07 09:21:24;;;;;;;6.13;3.65;;;;;;;;;;5043681;28;20556;-84
2023/09/07 09:23:53;;;;;;;6.18;4.05;;;;;;;;;;5037385;28;20510;-84
2023/09/07 09:26:18;;;;;;;5.20;3.97;;;;;;;;;;5041516;28;20189;-84
2023/09/07 09:28:45;;;;;;;6.20;4.10;;;;;;;;;;5039843;28;20056;-83
2023/09/07 09:31:14;;;;;;;4.95;4.03;;;;;;;;;;5042358;28;20034;-85
2023/09/07 09:33:48;;;;;;;5.65;3.80;;;;;;;;;;5039094;28;20049;-83
2023/09/07 09:36:14;;;;;;;4.80;3.83;;;;;;;;;;5039147;28;20033;-83
2023/09/07 09:38:39;;;;;;;8.23;4.82;;;;;;;;;;5046588;28;20440;-83
2023/09/07 09:41:06;;;;;;;7.05;5.13;;;;;;;;;;5046935;28;20040;-83
2023/09/07 09:43:31;;;;;;;6.45;4.78;;;;;;;;;;5048138;28;20548;-86
2023/09/07 09:45:58;;;;;;;8.32;5.60;;;;;;;;;;5062157;28;20045;-85
2023/09/07 09:48:23;;;;;;;7.80;5.60;;;;;;;;;;5041331;28;20422;-83
2023/09/07 09:50:50;;;;;;;6.07;5.32;;;;;;;;;;5040862;28;20035;-84
2023/09/07 09:53:18;;;;;;;7.25;5.45;;;;;;;;;;5036821;28;20471;-83
2023/09/07 09:55:48;;;;;;;6.82;5.28;;;;;;;;;;5042231;28;20039;-83
2023/09/07 09:58:14;;;;;;;6.10;4.60;;;;;;;;;;5038502;28;20040;-83
2023/09/07 10:00:48;;;;;;;7.03;4.35;;;;;;;;;;5038247;28;20075;-84
2023/09/07 10:03:26;;;;;;;5.93;4.00;;;;;;;;;;5042858;28;20048;-83
2023/09/07 10:05:53;;;;;;;5.38;3.80;;;;;;;;;;5044786;28;20038;-83
2023/09/07 10:08:20;;;;;;;4.95;3.70;;;;;;;;;;5041045;28;20037;-84
2023/09/07 10:10:55;;;;;;;5.05;3.63;;;;;;;;;;5059296;28;20041;-84
2023/09/07 10:13:31;;;;;;;4.68;3.38;;;;;;;;;;5047779;28;20048;-84
2023/09/07 10:16:09;;;;;;;5.07;3.40;;;;;;;;;;5044488;28;20398;-84
2023/09/07 10:18:39;;;;;;;4.25;3.40;;;;;;;;;;5039069;28;20103;-83
2023/09/07 10:21:05;;;;;;;5.82;3.40;;;;;;;;;;5039993;28;20091;-86
2023/09/07 10:23:35;;;;;;;6.28;3.35;;;;;;;;;;5042773;28;20110;-83
2023/09/07 10:26:04;;;;;;;8.35;4.20;;;;;;;;;;5042562;28;20555;-83
2023/09/07 10:28:30;;;;;;;7.55;4.18;;;;;;;;;;5046457;28;20052;-82
2023/09/07 10:31:00;;;;;;;6.45;3.67;;;;;;;;;;5039664;28;20029;-85
2023/09/07 10:33:26;;;;;;;5.65;3.90;;;;;;;;;;5037299;28;20035;-84
2023/09/07 10:35:52;;;;;;;5.60;4.00;;;;;;;;;;5041928;28;20349;-85
2023/09/07 10:38:17;;;;;;;5.25;3.55;;;;;;;;;;5047702;28;20040;-85
2023/09/07 10:40:47;;;;;;;7.18;4.00;;;;;;;;;;5043118;28;20048;-84
2023/09/07 10:43:13;;;;;;;8.98;4.32;;;;;;;;;;5037398;28;20060;-84
2023/09/07 10:45:39;;;;;;;7.78;3.95;;;;;;;;;;5040352;28;20060;-84
2023/09/07 10:48:05;;;;;;;7.03;4.20;;;;;;;;;;5040623;28;20056;-84
2023/09/07 10:50:41;;;;;;;11.57;4.07;;;;;;;;;;5044253;28;20036;-84
2023/09/07 10:53:07;;;;;;;5.15;4.20;;;;;;;;;;5040313;28;20045;-84
2023/09/07 10:55:38;;;;;;;9.68;4.28;;;;;;;;;;5050754;28;20048;-84
2023/09/07 10:58:04;;;;;;;5.25;3.65;;;;;;;;;;5038052;28;20121;-84
2023/09/07 11:00:29;;;;;;;6.20;3.70;;;;;;;;;;5042267;28;20069;-84
2023/09/07 11:02:55;;;;;;;6.38;4.10;;;;;;;;;;5044179;28;20068;-84
2023/09/07 11:05:20;;;;;;;5.45;4.50;;;;;;;;;;5053122;28;20055;-84
2023/09/07 11:07:46;;;;;;;7.90;4.07;;;;;;;;;;5036972;28;20045;-84
2023/09/07 11:10:12;;;;;;;6.50;3.85;;;;;;;;;;5023948;28;20048;-82
2023/09/07 11:12:39;;;;;;;9.80;4.53;;;;;;;;;;5046856;28;20510;-84
2023/09/07 11:15:08;;;;;;;9.07;4.30;;;;;;;;;;5041569;28;20120;-84
2023/09/07 11:17:33;;;;;;;5.40;4.20;;;;;;;;;;5041210;28;20120;-84
2023/09/07 11:20:05;;;;;;;7.68;4.47;;;;;;;;;;5036805;28;20085;-84
2023/09/07 11:22:30;;;;;;;7.10;5.00;;;;;;;;;;5043523;28;20044;-84
2023/09/07 11:24:56;;;;;;;7.70;4.53;;;;;;;;;;5038075;28;20394;-84
2023/09/07 11:27:22;;;;;;;8.75;4.70;;;;;;;;;;5040901;28;20487;-84
2023/09/07 11:29:52;;;;;;;6.05;4.30;;;;;;;;;;5050616;28;20483;-84
2023/09/07 11:32:21;;;;;;;6.82;4.63;;;;;;;;;;5036889;28;20060;-84
2023/09/07 11:34:51;;;;;;;6.80;4.30;;;;;;;;;;5044330;28;20500;-84
2023/09/07 11:37:18;;;;;;;6.20;4.25;;;;;;;;;;5042718;28;20499;-84
2023/09/07 11:39:44;;;;;;;6.70;4.13;;;;;;;;;;5038885;28;20045;-84
2023/09/07 11:42:09;;;;;;;5.50;3.88;;;;;;;;;;5038022;28;20087;-84
2023/09/07 11:44:35;;;;;;;6.07;4.10;;;;;;;;;;5050375;28;20036;-84
2023/09/07 11:47:01;;;;;;;8.38;4.32;;;;;;;;;;5051220;28;20037;-84
2023/09/07 11:49:26;;;;;;;5.63;4.20;;;;;;;;;;5039470;28;20048;-84
2023/09/07 11:51:52;;;;;;;8.02;4.72;;;;;;;;;;5039320;28;20091;-84
2023/09/07 11:54:17;;;;;;;7.35;4.50;;;;;;;;;;5036458;28;20041;-84
2023/09/07 11:56:45;;;;;;;6.97;4.47;;;;;;;;;;5041280;28;20037;-83
2023/09/07 11:59:11;;;;;;;6.03;4.32;;;;;;;;;;5051504;28;20033;-84
2023/09/07 12:01:36;;;;;;;7.63;4.45;;;;;;;;;;5040086;28;20036;-84
2023/09/07 12:04:04;;;;;;;8.63;4.40;;;;;;;;;;5035770;28;20095;-84
2023/09/07 12:06:29;;;;;;;6.25;4.25;;;;;;;;;;5048122;28;20048;-84
2023/09/07 12:09:09;;;;;;;5.13;4.00;;;;;;;;;;5046669;28;20037;-84
2023/09/07 12:11:35;;;;;;;6.30;4.38;;;;;;;;;;5042146;28;20039;-84
2023/09/07 12:14:01;;;;;;;7.15;4.05;;;;;;;;;;5038098;28;20124;-84
2023/09/07 12:16:27;;;;;;;6.30;4.20;;;;;;;;;;5041772;28;20045;-84
2023/09/07 12:18:53;;;;;;;8.32;4.20;;;;;;;;;;5051408;28;20112;-84
2023/09/07 12:21:19;;;;;;;5.68;3.95;;;;;;;;;;5042029;28;20060;-84
2023/09/07 12:23:44;;;;;;;6.97;4.07;;;;;;;;;;5036467;28;20041;-84
2023/09/07 12:26:10;;;;;;;6.68;3.90;;;;;;;;;;5038709;28;20041;-84
2023/09/07 12:28:36;;;;;;;6.40;3.88;;;;;;;;;;5049816;28;20029;-84
2023/09/07 12:31:02;;;;;;;8.77;4.30;;;;;;;;;;5038862;28;20103;-84
2023/09/07 12:33:30;;;;;;;6.53;3.67;;;;;;;;;;5043319;28;20025;-84
2023/09/07 12:35:55;;;;;;;10.02;4.18;;;;;;;;;;5039184;28;20061;-84
2023/09/07 12:38:24;;;;;;;5.10;3.80;;;;;;;;;;5033509;28;20521;-84
2023/09/07 12:40:50;;;;;;;6.43;4.10;;;;;;;;;;5038543;28;20075;-84
2023/09/07 12:43:15;;;;;;;9.13;4.00;;;;;;;;;;5050329;28;20514;-84
2023/09/07 12:45:41;;;;;;;7.22;3.80;;;;;;;;;;5049162;28;20029;-84
2023/09/07 12:48:07;;;;;;;6.22;4.20;;;;;;;;;;5037513;28;20517;-84
2023/09/07 12:50:32;;;;;;;6.28;4.18;;;;;;;;;;5037139;28;20035;-84
2023/09/07 12:52:58;;;;;;;7.00;4.13;;;;;;;;;;5043149;28;20546;-84
2023/09/07 12:55:24;;;;;;;6.93;4.28;;;;;;;;;;5039631;28;20045;-84
2023/09/07 12:57:50;;;;;;;6.20;4.20;;;;;;;;;;5045938;28;20684;-84
2023/09/07 13:00:16;;;;;;;8.63;4.30;;;;;;;;;;5038220;28;20079;-84
2023/09/07 13:02:41;;;;;;;5.60;3.97;;;;;;;;;;5035026;28;20073;-84
2023/09/07 13:05:07;;;;;;;4.97;3.60;;;;;;;;;;5038555;28;20124;-84
2023/09/07 13:07:35;;;;;;;5.38;4.05;;;;;;;;;;5044057;28;20041;-84
2023/09/07 13:10:04;;;;;;;6.80;4.10;;;;;;;;;;5038934;28;20124;-84
2023/09/07 13:12:31;;;;;;;6.20;4.30;;;;;;;;;;5033799;28;20050;-84
2023/09/07 13:14:56;;;;;;;6.30;4.30;;;;;;;;;;5043404;28;20064;-84
2023/09/07 13:17:22;;;;;;;4.60;4.03;;;;;;;;;;5045184;28;20065;-83
2023/09/07 13:19:48;;;;;;;5.00;3.90;;;;;;;;;;5040922;28;20047;-84
2023/09/07 13:22:13;;;;;;;6.72;4.05;;;;;;;;;;5035421;28;20034;-86
2023/09/07 13:24:39;;;;;;;6.55;4.30;;;;;;;;;;5037875;28;20038;-85
2023/09/07 13:27:05;;;;;;;7.18;3.97;;;;;;;;;;5039812;28;20120;-84
2023/09/07 13:29:33;;;;;;;8.15;4.10;;;;;;;;;;5037845;28;20048;-85
2023/09/07 13:31:59;;;;;;;5.80;3.83;;;;;;;;;;5040808;28;20475;-85
2023/09/07 13:34:25;;;;;;;5.63;4.07;;;;;;;;;;5035193;28;20044;-85
2023/09/07 13:36:51;;;;;;;10.32;4.20;;;;;;;;;;5039576;28;20029;-85
2023/09/07 13:39:16;;;;;;;5.22;3.83;;;;;;;;;;5036934;28;20037;-85
2023/09/07 13:41:42;;;;;;;6.07;4.20;;;;;;;;;;5049478;28;20119;-85
2023/09/07 13:44:07;;;;;;;6.32;3.97;;;;;;;;;;5039604;28;20511;-85
2023/09/07 13:46:33;;;;;;;8.50;4.30;;;;;;;;;;5046523;28;20033;-85
2023/09/07 13:48:59;;;;;;;7.25;3.97;;;;;;;;;;5047353;28;20041;-85
2023/09/07 13:51:25;;;;;;;6.18;4.00;;;;;;;;;;5044677;28;20064;-84
2023/09/07 13:53:51;;;;;;;4.88;3.50;;;;;;;;;;5039288;28;20468;-85
2023/09/07 13:56:18;;;;;;;9.80;3.80;;;;;;;;;;5037751;28;20514;-85
2023/09/07 13:58:43;;;;;;;5.03;3.53;;;;;;;;;;5034026;28;20048;-85
2023/09/07 14:01:09;;;;;;;5.85;3.58;;;;;;;;;;5037744;28;20037;-85
2023/09/07 14:03:35;;;;;;;5.43;3.53;;;;;;;;;;5046544;28;20116;-84
2023/09/07 14:06:01;;;;;;;7.22;3.90;;;;;;;;;;5040918;28;20095;-85
2023/09/07 14:08:26;;;;;;;3.80;3.40;;;;;;;;;;5037072;28;20120;-85
2023/09/07 14:10:52;;;;;;;4.05;3.15;;;;;;;;;;5050425;28;20127;-85
2023/09/07 14:13:18;;;;;;;4.32;3.10;;;;;;;;;;5037097;28;20029;-85
2023/09/07 14:15:44;;;;;;;4.55;3.47;;;;;;;;;;5042836;28;20041;-85
2023/09/07 14:18:10;;;;;;;4.90;3.63;;;;;;;;;;5038133;28;20478;-84
2023/09/07 14:20:35;;;;;;;4.63;3.30;;;;;;;;;;5034479;28;20068;-84
2023/09/07 14:23:01;;;;;;;7.15;3.30;;;;;;;;;;5051932;28;20465;-85
2023/09/07 14:25:27;;;;;;;5.63;3.55;;;;;;;;;;5047296;28;20410;-85
2023/09/07 14:27:53;;;;;;;5.05;3.28;;;;;;;;;;5049043;28;20072;-85
2023/09/07 14:30:18;;;;;;;3.92;3.17;;;;;;;;;;5040283;28;20041;-85
2023/09/07 14:32:46;;;;;;;4.90;3.33;;;;;;;;;;5036754;28;20041;-85
2023/09/07 14:35:12;;;;;;;5.22;3.60;;;;;;;;;;5039453;28;20032;-85
2023/09/07 14:37:38;;;;;;;4.57;3.08;;;;;;;;;;5044744;28;20525;-85
2023/09/07 14:40:04;;;;;;;5.55;3.40;;;;;;;;;;5043688;28;20041;-83